WetterOnline ( https://www.wetteronline.de )

Wetter aktuell Putgarten

Aktuelles Wetter: Kap Arkona/Rügen (42m)

6-stündlich | Neueste Meldungen
Ortszeit Temperatur Wetter
So, 18.04. 14:00 7.4° C wolkig
So, 18.04. 8:00 6.2° C fast wolkenlos
So, 18.04. 2:00 4.6° C fast wolkenlos
Sa, 17.04. 20:00 6.1° C leichter Regen
Sa, 17.04. 14:00 8.0° C wolkig
Sa, 17.04. 8:00 6.5° C wolkig
Sa, 17.04. 2:00 5.8° C bewölkt
Fr, 16.04. 20:00 6.3° C bedeckt
Ortszeit Temperatur Wetter
So, 18.04. 17:30 6.5° C bewölkt
So, 18.04. 17:20 6.5° C bewölkt
So, 18.04. 17:10 6.1° C bedeckt
So, 18.04. 17:00 6.3° C bewölkt
So, 18.04. 16:50 6.3° C bewölkt
So, 18.04. 16:40 6.5° C bewölkt
So, 18.04. 16:30 6.6° C wolkig
So, 18.04. 16:00 6.9° C bewölkt
Ortszeit Relative Feuchte Sichtweite
So, 18.04. 14:00 80% 30 km
So, 18.04. 8:00 85% 30 km
So, 18.04. 2:00 91% 24 km
Sa, 17.04. 20:00 85% 16 km
Sa, 17.04. 14:00 72% 30 km
Sa, 17.04. 8:00 75% 55 km
Sa, 17.04. 2:00 71% 55 km
Fr, 16.04. 20:00 70% 50 km
Ortszeit Relative Feuchte Sichtweite
So, 18.04. 17:30 88% 28 km
So, 18.04. 17:20 88% -
So, 18.04. 17:10 88% -
So, 18.04. 17:00 86% 26 km
So, 18.04. 16:50 86% -
So, 18.04. 16:40 85% -
So, 18.04. 16:30 85% 25 km
So, 18.04. 16:00 84% 30 km
Ortszeit Niederschlagsmenge Niederschlagsart
So, 18.04. 14:00 0.0 l/m2 in 6 Std. -
So, 18.04. 8:00 0.1 l/m2 in 12 Std. -
So, 18.04. 2:00 0.1 l/m2 in 6 Std. Regen
Sa, 17.04. 20:00 0.1 l/m2 in 12 Std. Regen
Sa, 17.04. 14:00 0.0 l/m2 in 6 Std. -
Sa, 17.04. 8:00 0.1 l/m2 in 12 Std. -
Sa, 17.04. 2:00 0.1 l/m2 in 6 Std. Regen
Fr, 16.04. 20:00 0.0 l/m2 in 12 Std. -
Ortszeit Niederschlagsmenge Niederschlagsart
So, 18.04. 17:30 0.0 l/m2 in 1 Std. -
So, 18.04. 17:20 keine Meldung -
So, 18.04. 17:10 keine Meldung -
So, 18.04. 17:00 0.0 l/m2 in 1 Std. -
So, 18.04. 16:50 keine Meldung -
So, 18.04. 16:40 keine Meldung -
So, 18.04. 16:30 0.0 l/m2 in 1 Std. -
So, 18.04. 16:00 0.0 l/m2 in 1 Std. -
Ortszeit Stärke Spitze Richtung
km/h Bft. km/h Grad Sektor
So, 18.04. 14:00 25 4 36 40° NO
So, 18.04. 8:00 28 4 43 60° NO
So, 18.04. 2:00 28 4 37 50° NO
Sa, 17.04. 20:00 24 4 35 50° NO
Sa, 17.04. 14:00 26 4 37 40° NO
Sa, 17.04. 8:00 30 5 43 40° NO
Sa, 17.04. 2:00 22 4 40 10° N
Fr, 16.04. 20:00 18 3 29 320° NW
Ortszeit Stärke Spitze Richtung
km/h Bft. km/h Grad Sektor
So, 18.04. 17:30 14 3 22 70° O
So, 18.04. 17:20 14 3 - 70° O
So, 18.04. 17:10 17 3 - 60° NO
So, 18.04. 17:00 17 3 26 70° O
So, 18.04. 16:50 17 3 - 70° O
So, 18.04. 16:40 15 3 - 60° NO
So, 18.04. 16:30 19 3 26 60° NO
So, 18.04. 16:00 24 4 31 50° NO
Ortszeit Untergrenze Bedeckung Gattung
total tief tief mittel hoch
So, 18.04. 14:00 3000 m 7/8 5/8 - - -
So, 18.04. 8:00 8400 m 1/8 0/8 - - -
So, 18.04. 2:00 960 m 0/8 0/8 - - -
Sa, 17.04. 20:00 30 m 7/8 7/8 - - -
Sa, 17.04. 14:00 6600 m 7/8 7/8 - - -
Sa, 17.04. 8:00 5400 m 8/8 8/8 - - -
Sa, 17.04. 2:00 3000 m 7/8 8/8 - - -
Fr, 16.04. 20:00 1500 m 8/8 8/8 - - -
Ortszeit Bedeckungsgrad in Achtel und Wolkenuntergrenze
So, 18.04. 17:30 4(1800m) 8(3000m) 8(4200m)
So, 18.04. 17:20 4(1800m) 8(3000m) 8(4200m)
So, 18.04. 17:10 7(1800m) 8(2100m)
So, 18.04. 17:00 7(1800m) 7(2100m) 8(3000m)
So, 18.04. 16:50 7(1800m) 7(2100m) 8(3000m)
So, 18.04. 16:40 7(1800m) 7(3300m)
So, 18.04. 16:30 3(1800m) 4(2400m) 6(3300m)
So, 18.04. 16:00 6(1800m) 7(2400m)
Ortszeit Luftdruck NN (hPa) Tendenz (hPa in 3 Std.)
So, 18.04. 14:00 1023 0,0
So, 18.04. 8:00 1023 + 0,1
So, 18.04. 2:00 1024 - 0,3
Sa, 17.04. 20:00 1024 + 0,3
Sa, 17.04. 14:00 1024 - 0,4
Sa, 17.04. 8:00 1024 + 0,3
Sa, 17.04. 2:00 1024 - 0,7
Fr, 16.04. 20:00 1026 - 0,3
Ortszeit Luftdruck NN (hPa) Tendenz (hPa in 3 Std.)
So, 18.04. 17:30 1023 + 0,1
So, 18.04. 17:20 1023 keine Meldung
So, 18.04. 17:10 1023 keine Meldung
So, 18.04. 17:00 1023 - 0,1
So, 18.04. 16:50 1023 keine Meldung
So, 18.04. 16:40 1023 keine Meldung
So, 18.04. 16:30 1023 - 0,3
So, 18.04. 16:00 1023 - 0,6
Ortszeit Schneehöhe (cm)
So, 18.04. 14:00 0
So, 18.04. 8:00 0
So, 18.04. 2:00 0
Sa, 17.04. 20:00 0
Sa, 17.04. 14:00 0
Sa, 17.04. 8:00 0
Sa, 17.04. 2:00 0
Fr, 16.04. 20:00 0
Ortszeit Schneehöhe (cm)
So, 18.04. 17:30 0
So, 18.04. 17:20 0
So, 18.04. 17:10 0
So, 18.04. 17:00 0
So, 18.04. 16:50 0
So, 18.04. 16:40 0
So, 18.04. 16:30 0
So, 18.04. 16:00 0
Link zu dieser Seite / Seite empfehlen

Das Wetter in ...